sensor_id;sensor_type;location;lat;lon;timestamp;temperature;humidity
30520;DHT22;17300;50.374;8.006;2022-12-29T00:00:18;15.60;54.10
30520;DHT22;17300;50.374;8.006;2022-12-29T00:02:45;15.60;54.10
30520;DHT22;17300;50.374;8.006;2022-12-29T00:05:11;15.70;54.10
30520;DHT22;17300;50.374;8.006;2022-12-29T00:07:38;15.70;54.10
30520;DHT22;17300;50.374;8.006;2022-12-29T00:10:07;15.70;54.80
30520;DHT22;17300;50.374;8.006;2022-12-29T00:12:34;15.70;54.20
30520;DHT22;17300;50.374;8.006;2022-12-29T00:15:18;15.70;54.20
30520;DHT22;17300;50.374;8.006;2022-12-29T00:18:03;15.70;54.20
30520;DHT22;17300;50.374;8.006;2022-12-29T00:20:33;15.70;54.30
30520;DHT22;17300;50.374;8.006;2022-12-29T00:23:17;15.70;54.30
30520;DHT22;17300;50.374;8.006;2022-12-29T00:26:05;15.70;54.30
30520;DHT22;17300;50.374;8.006;2022-12-29T00:28:53;15.70;54.40
30520;DHT22;17300;50.374;8.006;2022-12-29T00:31:37;15.70;54.40
30520;DHT22;17300;50.374;8.006;2022-12-29T00:34:21;15.60;54.40
30520;DHT22;17300;50.374;8.006;2022-12-29T00:37:05;15.60;54.50
30520;DHT22;17300;50.374;8.006;2022-12-29T00:39:32;15.60;54.70
30520;DHT22;17300;50.374;8.006;2022-12-29T00:42:18;15.50;54.80
30520;DHT22;17300;50.374;8.006;2022-12-29T00:44:58;15.50;54.90
30520;DHT22;17300;50.374;8.006;2022-12-29T00:47:25;15.50;54.90
30520;DHT22;17300;50.374;8.006;2022-12-29T00:49:52;15.40;54.90
30520;DHT22;17300;50.374;8.006;2022-12-29T00:52:17;15.40;55.10
30520;DHT22;17300;50.374;8.006;2022-12-29T00:54:44;15.30;55.20
30520;DHT22;17300;50.374;8.006;2022-12-29T00:57:11;15.30;55.30
30520;DHT22;17300;50.374;8.006;2022-12-29T00:59:41;15.30;55.50
30520;DHT22;17300;50.374;8.006;2022-12-29T01:02:08;15.20;55.50
30520;DHT22;17300;50.374;8.006;2022-12-29T01:04:35;15.20;55.50
30520;DHT22;17300;50.374;8.006;2022-12-29T01:07:02;15.10;55.50
30520;DHT22;17300;50.374;8.006;2022-12-29T01:09:29;15.10;55.60
30520;DHT22;17300;50.374;8.006;2022-12-29T01:12:15;15.10;55.60
30520;DHT22;17300;50.374;8.006;2022-12-29T01:14:43;15.10;55.70
30520;DHT22;17300;50.374;8.006;2022-12-29T01:17:09;15.10;55.80
30520;DHT22;17300;50.374;8.006;2022-12-29T01:19:36;15.10;55.80
30520;DHT22;17300;50.374;8.006;2022-12-29T01:22:02;15.10;55.90
30520;DHT22;17300;50.374;8.006;2022-12-29T01:24:29;15.10;56.00
30520;DHT22;17300;50.374;8.006;2022-12-29T01:26:56;15.10;56.10
30520;DHT22;17300;50.374;8.006;2022-12-29T01:29:23;15.10;56.10
30520;DHT22;17300;50.374;8.006;2022-12-29T01:31:51;15.10;56.10
30520;DHT22;17300;50.374;8.006;2022-12-29T01:34:17;15.10;56.20
30520;DHT22;17300;50.374;8.006;2022-12-29T01:36:44;15.10;56.20
30520;DHT22;17300;50.374;8.006;2022-12-29T01:39:11;15.10;56.20
30520;DHT22;17300;50.374;8.006;2022-12-29T01:41:37;15.10;56.20
30520;DHT22;17300;50.374;8.006;2022-12-29T01:47:04;15.10;56.60
30520;DHT22;17300;50.374;8.006;2022-12-29T01:49:31;15.10;56.20
30520;DHT22;17300;50.374;8.006;2022-12-29T01:52:00;15.10;56.20
30520;DHT22;17300;50.374;8.006;2022-12-29T01:54:31;15.10;56.30
30520;DHT22;17300;50.374;8.006;2022-12-29T01:57:00;15.10;56.40
30520;DHT22;17300;50.374;8.006;2022-12-29T01:59:30;15.10;56.40
30520;DHT22;17300;50.374;8.006;2022-12-29T02:01:58;15.10;56.50
30520;DHT22;17300;50.374;8.006;2022-12-29T02:04:30;15.10;56.50
30520;DHT22;17300;50.374;8.006;2022-12-29T02:07:01;15.10;56.60
30520;DHT22;17300;50.374;8.006;2022-12-29T02:09:29;15.10;56.60
30520;DHT22;17300;50.374;8.006;2022-12-29T02:11:56;15.10;56.50
30520;DHT22;17300;50.374;8.006;2022-12-29T02:14:24;15.10;56.60
30520;DHT22;17300;50.374;8.006;2022-12-29T02:17:00;15.10;56.60
30520;DHT22;17300;50.374;8.006;2022-12-29T02:22:34;15.10;56.90
30520;DHT22;17300;50.374;8.006;2022-12-29T02:25:32;15.10;56.60
30520;DHT22;17300;50.374;8.006;2022-12-29T02:28:23;15.10;56.90
30520;DHT22;17300;50.374;8.006;2022-12-29T02:31:04;15.20;56.90
30520;DHT22;17300;50.374;8.006;2022-12-29T02:33:41;15.20;56.70
30520;DHT22;17300;50.374;8.006;2022-12-29T02:36:15;15.20;56.70
30520;DHT22;17300;50.374;8.006;2022-12-29T02:38:55;15.30;56.80
30520;DHT22;17300;50.374;8.006;2022-12-29T02:41:29;15.20;56.90
30520;DHT22;17300;50.374;8.006;2022-12-29T02:44:03;15.30;56.90
30520;DHT22;17300;50.374;8.006;2022-12-29T02:46:36;15.30;56.90
30520;DHT22;17300;50.374;8.006;2022-12-29T02:49:09;15.30;57.00
30520;DHT22;17300;50.374;8.006;2022-12-29T02:51:45;15.30;56.80
30520;DHT22;17300;50.374;8.006;2022-12-29T02:54:13;15.30;57.00
30520;DHT22;17300;50.374;8.006;2022-12-29T02:56:57;15.30;57.00
30520;DHT22;17300;50.374;8.006;2022-12-29T02:59:24;15.30;57.00
30520;DHT22;17300;50.374;8.006;2022-12-29T03:05:21;15.20;57.40
30520;DHT22;17300;50.374;8.006;2022-12-29T03:07:55;15.20;57.20
30520;DHT22;17300;50.374;8.006;2022-12-29T03:10:37;15.20;57.10
30520;DHT22;17300;50.374;8.006;2022-12-29T03:13:12;15.20;57.40
30520;DHT22;17300;50.374;8.006;2022-12-29T03:16:05;15.20;57.40
30520;DHT22;17300;50.374;8.006;2022-12-29T03:18:46;15.10;57.30
30520;DHT22;17300;50.374;8.006;2022-12-29T03:21:19;15.10;57.50
30520;DHT22;17300;50.374;8.006;2022-12-29T03:24:11;15.10;57.20
30520;DHT22;17300;50.374;8.006;2022-12-29T03:26:40;15.10;57.20
30520;DHT22;17300;50.374;8.006;2022-12-29T03:29:08;15.00;57.20
30520;DHT22;17300;50.374;8.006;2022-12-29T03:31:35;15.00;57.30
30520;DHT22;17300;50.374;8.006;2022-12-29T03:34:05;15.00;57.50
30520;DHT22;17300;50.374;8.006;2022-12-29T03:36:40;15.00;57.70
30520;DHT22;17300;50.374;8.006;2022-12-29T03:39:11;15.00;57.70
30520;DHT22;17300;50.374;8.006;2022-12-29T03:41:40;14.90;57.60
30520;DHT22;17300;50.374;8.006;2022-12-29T03:44:08;14.90;57.70
30520;DHT22;17300;50.374;8.006;2022-12-29T03:46:35;14.90;57.70
30520;DHT22;17300;50.374;8.006;2022-12-29T03:49:02;14.90;57.70
30520;DHT22;17300;50.374;8.006;2022-12-29T03:51:30;14.90;57.80
30520;DHT22;17300;50.374;8.006;2022-12-29T03:53:57;14.90;57.90
30520;DHT22;17300;50.374;8.006;2022-12-29T03:56:23;14.90;57.90
30520;DHT22;17300;50.374;8.006;2022-12-29T03:58:50;14.90;57.90
30520;DHT22;17300;50.374;8.006;2022-12-29T04:01:17;14.90;57.90
30520;DHT22;17300;50.374;8.006;2022-12-29T04:03:43;14.90;58.00
30520;DHT22;17300;50.374;8.006;2022-12-29T04:06:10;14.90;58.50
30520;DHT22;17300;50.374;8.006;2022-12-29T04:08:38;14.90;57.80
30520;DHT22;17300;50.374;8.006;2022-12-29T04:11:05;14.90;57.70
30520;DHT22;17300;50.374;8.006;2022-12-29T04:13:31;15.00;57.80
30520;DHT22;17300;50.374;8.006;2022-12-29T04:15:58;15.00;57.80
30520;DHT22;17300;50.374;8.006;2022-12-29T04:18:24;15.00;57.80
30520;DHT22;17300;50.374;8.006;2022-12-29T04:20:51;15.10;57.90
30520;DHT22;17300;50.374;8.006;2022-12-29T04:23:29;15.10;57.80
30520;DHT22;17300;50.374;8.006;2022-12-29T04:25:57;15.10;57.70
30520;DHT22;17300;50.374;8.006;2022-12-29T04:28:24;15.00;57.70
30520;DHT22;17300;50.374;8.006;2022-12-29T04:30:50;15.00;57.70
30520;DHT22;17300;50.374;8.006;2022-12-29T04:33:17;15.00;57.70
30520;DHT22;17300;50.374;8.006;2022-12-29T04:35:44;15.00;57.70
30520;DHT22;17300;50.374;8.006;2022-12-29T04:38:11;15.00;57.80
30520;DHT22;17300;50.374;8.006;2022-12-29T04:40:40;15.10;57.80
30520;DHT22;17300;50.374;8.006;2022-12-29T04:43:08;15.10;57.90
30520;DHT22;17300;50.374;8.006;2022-12-29T04:45:35;15.10;57.90
30520;DHT22;17300;50.374;8.006;2022-12-29T04:48:03;15.10;57.80
30520;DHT22;17300;50.374;8.006;2022-12-29T04:50:29;15.10;57.80
30520;DHT22;17300;50.374;8.006;2022-12-29T04:52:56;15.20;57.80
30520;DHT22;17300;50.374;8.006;2022-12-29T04:55:22;15.20;57.80
30520;DHT22;17300;50.374;8.006;2022-12-29T04:57:49;15.20;57.80
30520;DHT22;17300;50.374;8.006;2022-12-29T05:00:17;15.20;57.80
30520;DHT22;17300;50.374;8.006;2022-12-29T05:02:44;15.20;57.80
30520;DHT22;17300;50.374;8.006;2022-12-29T05:05:11;15.20;57.70
30520;DHT22;17300;50.374;8.006;2022-12-29T05:07:38;15.20;57.80
30520;DHT22;17300;50.374;8.006;2022-12-29T05:10:05;15.20;57.70
30520;DHT22;17300;50.374;8.006;2022-12-29T05:12:33;15.30;57.80
30520;DHT22;17300;50.374;8.006;2022-12-29T05:15:00;15.30;57.70
30520;DHT22;17300;50.374;8.006;2022-12-29T05:17:29;15.30;57.60
30520;DHT22;17300;50.374;8.006;2022-12-29T05:19:56;15.30;57.60
30520;DHT22;17300;50.374;8.006;2022-12-29T05:22:23;15.40;57.60
30520;DHT22;17300;50.374;8.006;2022-12-29T05:24:49;15.30;57.50
30520;DHT22;17300;50.374;8.006;2022-12-29T05:27:16;15.40;57.50
30520;DHT22;17300;50.374;8.006;2022-12-29T05:29:43;15.40;57.40
30520;DHT22;17300;50.374;8.006;2022-12-29T05:32:10;15.40;57.40
30520;DHT22;17300;50.374;8.006;2022-12-29T05:34:37;15.40;57.30
30520;DHT22;17300;50.374;8.006;2022-12-29T05:37:04;15.40;57.30
30520;DHT22;17300;50.374;8.006;2022-12-29T05:39:31;15.40;57.30
30520;DHT22;17300;50.374;8.006;2022-12-29T05:41:57;15.40;57.20
30520;DHT22;17300;50.374;8.006;2022-12-29T05:44:24;15.40;57.20
30520;DHT22;17300;50.374;8.006;2022-12-29T05:46:51;15.50;57.20
30520;DHT22;17300;50.374;8.006;2022-12-29T05:49:18;15.50;57.20
30520;DHT22;17300;50.374;8.006;2022-12-29T05:51:46;15.50;57.20
30520;DHT22;17300;50.374;8.006;2022-12-29T05:54:13;15.50;57.20
30520;DHT22;17300;50.374;8.006;2022-12-29T05:56:39;15.50;57.80
30520;DHT22;17300;50.374;8.006;2022-12-29T05:59:06;15.50;57.20
30520;DHT22;17300;50.374;8.006;2022-12-29T06:01:33;15.60;57.20
30520;DHT22;17300;50.374;8.006;2022-12-29T06:04:00;15.60;57.20
30520;DHT22;17300;50.374;8.006;2022-12-29T06:06:26;15.60;57.10
30520;DHT22;17300;50.374;8.006;2022-12-29T06:08:54;15.60;57.10
30520;DHT22;17300;50.374;8.006;2022-12-29T06:11:21;15.60;57.00
30520;DHT22;17300;50.374;8.006;2022-12-29T06:13:48;15.60;57.00
30520;DHT22;17300;50.374;8.006;2022-12-29T06:16:15;15.60;57.00
30520;DHT22;17300;50.374;8.006;2022-12-29T06:18:41;15.70;57.60
30520;DHT22;17300;50.374;8.006;2022-12-29T06:21:08;15.70;57.00
30520;DHT22;17300;50.374;8.006;2022-12-29T06:23:34;15.70;57.00
30520;DHT22;17300;50.374;8.006;2022-12-29T06:26:03;15.60;56.80
30520;DHT22;17300;50.374;8.006;2022-12-29T06:28:29;15.70;56.90
30520;DHT22;17300;50.374;8.006;2022-12-29T06:30:56;15.70;56.90
30520;DHT22;17300;50.374;8.006;2022-12-29T06:33:23;15.70;56.80
30520;DHT22;17300;50.374;8.006;2022-12-29T06:35:49;15.70;56.80
30520;DHT22;17300;50.374;8.006;2022-12-29T06:38:16;15.70;56.90
30520;DHT22;17300;50.374;8.006;2022-12-29T06:40:43;15.80;57.00
30520;DHT22;17300;50.374;8.006;2022-12-29T06:43:12;15.80;56.90
30520;DHT22;17300;50.374;8.006;2022-12-29T06:45:39;15.80;56.90
30520;DHT22;17300;50.374;8.006;2022-12-29T06:48:06;15.70;56.80
30520;DHT22;17300;50.374;8.006;2022-12-29T06:50:33;15.80;56.90
30520;DHT22;17300;50.374;8.006;2022-12-29T06:53:00;15.70;56.80
30520;DHT22;17300;50.374;8.006;2022-12-29T06:55:26;15.70;56.80
30520;DHT22;17300;50.374;8.006;2022-12-29T06:57:54;15.70;56.80
30520;DHT22;17300;50.374;8.006;2022-12-29T07:00:22;15.70;56.80
30520;DHT22;17300;50.374;8.006;2022-12-29T07:02:49;15.70;56.80
30520;DHT22;17300;50.374;8.006;2022-12-29T07:05:16;15.70;56.80
30520;DHT22;17300;50.374;8.006;2022-12-29T07:07:42;15.70;56.90
30520;DHT22;17300;50.374;8.006;2022-12-29T07:10:09;15.70;56.90
30520;DHT22;17300;50.374;8.006;2022-12-29T07:12:36;15.60;56.90
30520;DHT22;17300;50.374;8.006;2022-12-29T07:15:03;15.70;57.00
30520;DHT22;17300;50.374;8.006;2022-12-29T07:17:31;15.70;56.90
30520;DHT22;17300;50.374;8.006;2022-12-29T07:19:57;15.60;56.90
30520;DHT22;17300;50.374;8.006;2022-12-29T07:22:24;15.60;56.90
30520;DHT22;17300;50.374;8.006;2022-12-29T07:24:51;15.60;57.00
30520;DHT22;17300;50.374;8.006;2022-12-29T07:27:17;15.60;57.00
30520;DHT22;17300;50.374;8.006;2022-12-29T07:29:44;15.60;57.00
30520;DHT22;17300;50.374;8.006;2022-12-29T07:32:11;15.60;57.10
30520;DHT22;17300;50.374;8.006;2022-12-29T07:34:39;15.60;57.10
30520;DHT22;17300;50.374;8.006;2022-12-29T07:37:06;15.60;57.20
30520;DHT22;17300;50.374;8.006;2022-12-29T07:39:32;15.60;57.10
30520;DHT22;17300;50.374;8.006;2022-12-29T07:41:59;15.60;57.10
30520;DHT22;17300;50.374;8.006;2022-12-29T07:44:26;15.60;57.00
30520;DHT22;17300;50.374;8.006;2022-12-29T07:46:52;15.60;57.00
30520;DHT22;17300;50.374;8.006;2022-12-29T07:49:19;15.70;57.10
30520;DHT22;17300;50.374;8.006;2022-12-29T07:51:47;15.60;57.00
30520;DHT22;17300;50.374;8.006;2022-12-29T07:54:13;15.70;57.10
30520;DHT22;17300;50.374;8.006;2022-12-29T07:56:43;15.60;57.10
30520;DHT22;17300;50.374;8.006;2022-12-29T07:59:10;15.70;57.20
30520;DHT22;17300;50.374;8.006;2022-12-29T08:01:37;15.60;57.30
30520;DHT22;17300;50.374;8.006;2022-12-29T08:04:04;15.60;57.30
30520;DHT22;17300;50.374;8.006;2022-12-29T08:06:31;15.60;57.30
30520;DHT22;17300;50.374;8.006;2022-12-29T08:08:59;15.60;57.30
30520;DHT22;17300;50.374;8.006;2022-12-29T08:11:28;15.50;57.80
30520;DHT22;17300;50.374;8.006;2022-12-29T08:14:09;15.40;57.20
30520;DHT22;17300;50.374;8.006;2022-12-29T08:16:36;15.30;57.20
30520;DHT22;17300;50.374;8.006;2022-12-29T08:19:03;15.30;57.30
30520;DHT22;17300;50.374;8.006;2022-12-29T08:21:33;15.20;57.40
30520;DHT22;17300;50.374;8.006;2022-12-29T08:24:17;15.10;57.50
30520;DHT22;17300;50.374;8.006;2022-12-29T08:26:44;15.10;58.00
30520;DHT22;17300;50.374;8.006;2022-12-29T08:29:12;15.10;57.80
30520;DHT22;17300;50.374;8.006;2022-12-29T08:31:39;15.00;57.70
30520;DHT22;17300;50.374;8.006;2022-12-29T08:34:05;15.00;57.80
30520;DHT22;17300;50.374;8.006;2022-12-29T08:36:35;15.00;58.00
30520;DHT22;17300;50.374;8.006;2022-12-29T08:39:04;14.90;58.00
30520;DHT22;17300;50.374;8.006;2022-12-29T08:41:31;14.90;58.00
30520;DHT22;17300;50.374;8.006;2022-12-29T08:43:58;14.90;57.80
30520;DHT22;17300;50.374;8.006;2022-12-29T08:46:25;14.80;57.70
30520;DHT22;17300;50.374;8.006;2022-12-29T08:48:52;14.80;57.80
30520;DHT22;17300;50.374;8.006;2022-12-29T08:51:19;14.80;57.90
30520;DHT22;17300;50.374;8.006;2022-12-29T08:53:47;14.70;57.90
30520;DHT22;17300;50.374;8.006;2022-12-29T08:56:17;14.70;58.10
30520;DHT22;17300;50.374;8.006;2022-12-29T08:58:44;14.70;58.20
30520;DHT22;17300;50.374;8.006;2022-12-29T09:01:11;14.70;58.20
30520;DHT22;17300;50.374;8.006;2022-12-29T09:03:37;14.70;58.40
30520;DHT22;17300;50.374;8.006;2022-12-29T09:06:04;14.70;58.40
30520;DHT22;17300;50.374;8.006;2022-12-29T09:08:31;14.70;58.40
30520;DHT22;17300;50.374;8.006;2022-12-29T09:11:06;14.70;58.50
30520;DHT22;17300;50.374;8.006;2022-12-29T09:13:34;14.80;58.80
30520;DHT22;17300;50.374;8.006;2022-12-29T09:16:01;14.80;58.70
30520;DHT22;17300;50.374;8.006;2022-12-29T09:18:28;14.80;58.70
30520;DHT22;17300;50.374;8.006;2022-12-29T09:20:56;14.90;58.80
30520;DHT22;17300;50.374;8.006;2022-12-29T09:23:24;14.90;58.90
30520;DHT22;17300;50.374;8.006;2022-12-29T09:25:52;15.00;58.90
30520;DHT22;17300;50.374;8.006;2022-12-29T09:28:19;15.00;58.90
30520;DHT22;17300;50.374;8.006;2022-12-29T09:30:47;15.10;59.00
30520;DHT22;17300;50.374;8.006;2022-12-29T09:33:14;15.10;58.70
30520;DHT22;17300;50.374;8.006;2022-12-29T09:35:42;15.10;58.60
30520;DHT22;17300;50.374;8.006;2022-12-29T09:38:09;15.20;58.60
30520;DHT22;17300;50.374;8.006;2022-12-29T09:40:36;15.20;58.50
30520;DHT22;17300;50.374;8.006;2022-12-29T09:43:22;15.20;58.50
30520;DHT22;17300;50.374;8.006;2022-12-29T09:45:57;15.20;58.50
30520;DHT22;17300;50.374;8.006;2022-12-29T09:48:29;15.30;58.40
30520;DHT22;17300;50.374;8.006;2022-12-29T09:50:59;15.30;58.30
30520;DHT22;17300;50.374;8.006;2022-12-29T09:53:31;15.30;58.40
30520;DHT22;17300;50.374;8.006;2022-12-29T09:56:03;15.40;58.40
30520;DHT22;17300;50.374;8.006;2022-12-29T09:58:36;15.40;58.40
30520;DHT22;17300;50.374;8.006;2022-12-29T10:01:07;15.40;58.50
30520;DHT22;17300;50.374;8.006;2022-12-29T10:03:45;15.50;58.60
30520;DHT22;17300;50.374;8.006;2022-12-29T10:06:17;15.60;58.70
30520;DHT22;17300;50.374;8.006;2022-12-29T10:08:50;15.60;58.80
30520;DHT22;17300;50.374;8.006;2022-12-29T10:11:35;15.70;58.90
30520;DHT22;17300;50.374;8.006;2022-12-29T10:14:23;15.80;58.90
30520;DHT22;17300;50.374;8.006;2022-12-29T10:16:59;16.00;58.80
30520;DHT22;17300;50.374;8.006;2022-12-29T10:19:54;16.00;59.10
30520;DHT22;17300;50.374;8.006;2022-12-29T10:22:35;16.10;58.30
30520;DHT22;17300;50.374;8.006;2022-12-29T10:25:13;16.10;58.10
30520;DHT22;17300;50.374;8.006;2022-12-29T10:27:42;16.10;58.00
30520;DHT22;17300;50.374;8.006;2022-12-29T10:30:12;16.00;57.60
30520;DHT22;17300;50.374;8.006;2022-12-29T10:32:45;15.90;57.50
30520;DHT22;17300;50.374;8.006;2022-12-29T10:35:16;15.80;57.50
30520;DHT22;17300;50.374;8.006;2022-12-29T10:37:50;15.70;57.60
30520;DHT22;17300;50.374;8.006;2022-12-29T10:40:23;15.60;57.70
30520;DHT22;17300;50.374;8.006;2022-12-29T10:42:53;15.50;57.70
30520;DHT22;17300;50.374;8.006;2022-12-29T10:45:22;15.50;57.90
30520;DHT22;17300;50.374;8.006;2022-12-29T10:47:55;15.40;58.00
30520;DHT22;17300;50.374;8.006;2022-12-29T10:50:24;15.30;58.30
30520;DHT22;17300;50.374;8.006;2022-12-29T10:52:52;15.30;58.50
30520;DHT22;17300;50.374;8.006;2022-12-29T10:55:22;15.30;58.70
30520;DHT22;17300;50.374;8.006;2022-12-29T10:57:53;15.20;58.70
30520;DHT22;17300;50.374;8.006;2022-12-29T11:00:23;15.20;58.70
30520;DHT22;17300;50.374;8.006;2022-12-29T11:03:02;15.20;58.80
30520;DHT22;17300;50.374;8.006;2022-12-29T11:05:37;15.30;59.10
30520;DHT22;17300;50.374;8.006;2022-12-29T11:08:10;15.30;59.00
30520;DHT22;17300;50.374;8.006;2022-12-29T11:10:38;15.30;59.00
30520;DHT22;17300;50.374;8.006;2022-12-29T11:13:11;15.30;58.90
30520;DHT22;17300;50.374;8.006;2022-12-29T11:15:40;15.30;58.90
30520;DHT22;17300;50.374;8.006;2022-12-29T11:18:19;15.40;58.90
30520;DHT22;17300;50.374;8.006;2022-12-29T11:20:48;15.40;59.00
30520;DHT22;17300;50.374;8.006;2022-12-29T11:23:24;15.40;59.00
30520;DHT22;17300;50.374;8.006;2022-12-29T11:26:16;15.40;59.10
30520;DHT22;17300;50.374;8.006;2022-12-29T11:28:45;15.50;59.10
30520;DHT22;17300;50.374;8.006;2022-12-29T11:31:16;15.50;59.00
30520;DHT22;17300;50.374;8.006;2022-12-29T11:33:44;15.60;59.00
30520;DHT22;17300;50.374;8.006;2022-12-29T11:36:15;15.60;58.80
30520;DHT22;17300;50.374;8.006;2022-12-29T11:38:46;15.60;58.70
30520;DHT22;17300;50.374;8.006;2022-12-29T11:41:20;15.70;58.60
30520;DHT22;17300;50.374;8.006;2022-12-29T11:43:47;15.70;58.20
30520;DHT22;17300;50.374;8.006;2022-12-29T11:46:18;15.70;58.10
30520;DHT22;17300;50.374;8.006;2022-12-29T11:48:47;15.80;58.00
30520;DHT22;17300;50.374;8.006;2022-12-29T11:51:25;15.80;57.90
30520;DHT22;17300;50.374;8.006;2022-12-29T11:53:56;15.80;57.50
30520;DHT22;17300;50.374;8.006;2022-12-29T11:56:37;15.80;57.40
30520;DHT22;17300;50.374;8.006;2022-12-29T11:59:36;15.90;56.90
30520;DHT22;17300;50.374;8.006;2022-12-29T12:02:15;15.90;56.80
30520;DHT22;17300;50.374;8.006;2022-12-29T12:04:48;15.90;56.80
30520;DHT22;17300;50.374;8.006;2022-12-29T12:07:19;16.00;56.90
30520;DHT22;17300;50.374;8.006;2022-12-29T12:09:51;16.00;56.50
30520;DHT22;17300;50.374;8.006;2022-12-29T12:12:23;16.00;56.40
30520;DHT22;17300;50.374;8.006;2022-12-29T12:14:55;16.00;56.10
30520;DHT22;17300;50.374;8.006;2022-12-29T12:17:29;16.10;56.10
30520;DHT22;17300;50.374;8.006;2022-12-29T12:20:14;16.10;55.80
30520;DHT22;17300;50.374;8.006;2022-12-29T12:22:46;16.10;55.40
30520;DHT22;17300;50.374;8.006;2022-12-29T12:25:18;16.10;55.50
30520;DHT22;17300;50.374;8.006;2022-12-29T12:27:51;16.10;55.60
30520;DHT22;17300;50.374;8.006;2022-12-29T12:30:20;16.10;55.50
30520;DHT22;17300;50.374;8.006;2022-12-29T12:32:52;16.10;55.60
30520;DHT22;17300;50.374;8.006;2022-12-29T12:35:28;16.10;55.60
30520;DHT22;17300;50.374;8.006;2022-12-29T12:38:11;16.20;55.50
30520;DHT22;17300;50.374;8.006;2022-12-29T12:40:53;16.30;55.30
30520;DHT22;17300;50.374;8.006;2022-12-29T12:43:38;16.30;55.30
30520;DHT22;17300;50.374;8.006;2022-12-29T12:49:25;16.40;55.00
30520;DHT22;17300;50.374;8.006;2022-12-29T12:52:02;16.50;55.20
30520;DHT22;17300;50.374;8.006;2022-12-29T12:54:41;16.50;55.10
30520;DHT22;17300;50.374;8.006;2022-12-29T12:57:15;16.50;54.80
30520;DHT22;17300;50.374;8.006;2022-12-29T12:59:52;16.50;54.80
30520;DHT22;17300;50.374;8.006;2022-12-29T13:02:34;16.50;54.40
30520;DHT22;17300;50.374;8.006;2022-12-29T13:05:14;16.50;54.10
30520;DHT22;17300;50.374;8.006;2022-12-29T13:07:53;16.50;54.10
30520;DHT22;17300;50.374;8.006;2022-12-29T13:10:35;16.60;54.30
30520;DHT22;17300;50.374;8.006;2022-12-29T13:13:33;16.60;54.10
30520;DHT22;17300;50.374;8.006;2022-12-29T13:16:05;16.60;53.90
30520;DHT22;17300;50.374;8.006;2022-12-29T13:18:37;16.60;54.30
30520;DHT22;17300;50.374;8.006;2022-12-29T13:21:15;16.60;54.20
30520;DHT22;17300;50.374;8.006;2022-12-29T13:23:55;16.60;54.20
30520;DHT22;17300;50.374;8.006;2022-12-29T13:26:29;16.60;53.90
30520;DHT22;17300;50.374;8.006;2022-12-29T13:29:03;16.70;54.20
30520;DHT22;17300;50.374;8.006;2022-12-29T13:31:38;16.70;54.10
30520;DHT22;17300;50.374;8.006;2022-12-29T13:34:17;16.70;54.10
30520;DHT22;17300;50.374;8.006;2022-12-29T13:36:52;16.70;53.90
30520;DHT22;17300;50.374;8.006;2022-12-29T13:39:24;16.80;54.00
30520;DHT22;17300;50.374;8.006;2022-12-29T13:41:53;16.80;53.80
30520;DHT22;17300;50.374;8.006;2022-12-29T13:44:23;16.90;53.70
30520;DHT22;17300;50.374;8.006;2022-12-29T13:46:51;16.90;53.70
30520;DHT22;17300;50.374;8.006;2022-12-29T13:49:20;16.90;53.70
30520;DHT22;17300;50.374;8.006;2022-12-29T13:51:51;16.90;53.70
30520;DHT22;17300;50.374;8.006;2022-12-29T13:54:27;17.00;54.00
30520;DHT22;17300;50.374;8.006;2022-12-29T13:57:02;17.00;52.80
30520;DHT22;17300;50.374;8.006;2022-12-29T13:59:38;17.00;52.90
30520;DHT22;17300;50.374;8.006;2022-12-29T14:02:15;16.90;52.80
30520;DHT22;17300;50.374;8.006;2022-12-29T14:04:56;16.90;52.60
30520;DHT22;17300;50.374;8.006;2022-12-29T14:07:23;16.90;52.50
30520;DHT22;17300;50.374;8.006;2022-12-29T14:09:52;16.90;52.60
30520;DHT22;17300;50.374;8.006;2022-12-29T14:12:30;16.80;52.30
30520;DHT22;17300;50.374;8.006;2022-12-29T14:15:19;16.70;51.70
30520;DHT22;17300;50.374;8.006;2022-12-29T14:18:05;16.70;51.60
30520;DHT22;17300;50.374;8.006;2022-12-29T14:20:36;16.60;51.30
30520;DHT22;17300;50.374;8.006;2022-12-29T14:23:16;16.50;51.60
30520;DHT22;17300;50.374;8.006;2022-12-29T14:26:11;16.40;51.30
30520;DHT22;17300;50.374;8.006;2022-12-29T14:28:40;16.20;51.40
30520;DHT22;17300;50.374;8.006;2022-12-29T14:31:34;16.10;51.60
30520;DHT22;17300;50.374;8.006;2022-12-29T14:34:29;16.00;51.30
30520;DHT22;17300;50.374;8.006;2022-12-29T14:36:57;15.90;51.40
30520;DHT22;17300;50.374;8.006;2022-12-29T14:39:33;15.80;51.80
30520;DHT22;17300;50.374;8.006;2022-12-29T14:42:04;15.70;51.80
30520;DHT22;17300;50.374;8.006;2022-12-29T14:44:32;15.60;51.90
30520;DHT22;17300;50.374;8.006;2022-12-29T14:47:00;15.50;51.90
30520;DHT22;17300;50.374;8.006;2022-12-29T14:49:33;15.50;52.10
30520;DHT22;17300;50.374;8.006;2022-12-29T14:52:15;15.40;52.10
30520;DHT22;17300;50.374;8.006;2022-12-29T14:57:35;15.40;52.20
30520;DHT22;17300;50.374;8.006;2022-12-29T15:00:18;15.30;52.00
30520;DHT22;17300;50.374;8.006;2022-12-29T15:02:52;15.30;52.10
30520;DHT22;17300;50.374;8.006;2022-12-29T15:05:32;15.30;52.30
30520;DHT22;17300;50.374;8.006;2022-12-29T15:08:01;15.20;52.10
30520;DHT22;17300;50.374;8.006;2022-12-29T15:10:36;15.20;52.40
30520;DHT22;17300;50.374;8.006;2022-12-29T15:13:13;15.20;53.00
30520;DHT22;17300;50.374;8.006;2022-12-29T15:15:41;15.10;52.30
30520;DHT22;17300;50.374;8.006;2022-12-29T15:18:21;15.10;52.30
30520;DHT22;17300;50.374;8.006;2022-12-29T15:20:50;15.10;52.20
30520;DHT22;17300;50.374;8.006;2022-12-29T15:23:18;15.00;52.10
30520;DHT22;17300;50.374;8.006;2022-12-29T15:25:47;15.00;52.00
30520;DHT22;17300;50.374;8.006;2022-12-29T15:28:20;14.90;51.80
30520;DHT22;17300;50.374;8.006;2022-12-29T15:30:52;14.90;51.90
30520;DHT22;17300;50.374;8.006;2022-12-29T15:33:20;14.80;51.70
30520;DHT22;17300;50.374;8.006;2022-12-29T15:35:50;14.80;51.80
30520;DHT22;17300;50.374;8.006;2022-12-29T15:38:22;14.70;51.80
30520;DHT22;17300;50.374;8.006;2022-12-29T15:40:52;14.60;51.60
30520;DHT22;17300;50.374;8.006;2022-12-29T15:43:33;14.60;51.70
30520;DHT22;17300;50.374;8.006;2022-12-29T15:46:02;14.50;51.60
30520;DHT22;17300;50.374;8.006;2022-12-29T15:48:30;14.50;51.80
30520;DHT22;17300;50.374;8.006;2022-12-29T15:50:57;14.40;51.70
30520;DHT22;17300;50.374;8.006;2022-12-29T15:53:27;14.40;51.70
30520;DHT22;17300;50.374;8.006;2022-12-29T15:55:57;14.30;51.50
30520;DHT22;17300;50.374;8.006;2022-12-29T15:58:28;14.30;51.50
30520;DHT22;17300;50.374;8.006;2022-12-29T16:00:56;14.20;51.50
30520;DHT22;17300;50.374;8.006;2022-12-29T16:03:26;14.10;51.50
30520;DHT22;17300;50.374;8.006;2022-12-29T16:05:55;14.10;51.50
30520;DHT22;17300;50.374;8.006;2022-12-29T16:08:29;14.00;51.40
30520;DHT22;17300;50.374;8.006;2022-12-29T16:10:59;13.90;51.30